Terminal Aerodrome Forecast
Issued by NWS

Home | Current Version | Previous Version | Text Only | Print | Product List | Glossary On
Versions: 1 2 3 4 5 6 7 8 9 10 11 12 13 14 15 16 17 18 19 20 21 22 23 24
613
FTUS41 KRLX 141551 AAA
TAFCKB
TAF AMD
KCKB 141551Z 1416/1512 VRB03KT P6SM BKN250
     FM141900 10003KT P6SM BKN100
     FM150200 13005KT 4SM -SN OVC045
     FM150500 14006KT 2SM -SN OVC020=

USA.gov is the U.S. government's official web portal to all federal, state and local government web resources and services.